Time;durP1;ratioP1;P1;durP2;ratioP2;P2;SDS_P1;SDS_P2;PMS_P1;PMS_P2;Temp;Humidity;BMP_temperature;BMP_pressure;BME280_temperature;BME280_humidity;BME280_pressure;Samples;Min_cycle;Max_cycle;Signal;HPM_P1;HPM_P2
2022/07/15 03:02:25;;;;;;;14.55;3.10;;;13.20;99.90;;;;;;6296747;22;20046;-89
2022/07/15 03:04:51;;;;;;;10.82;3.22;;;13.20;99.90;;;;;;6260566;22;20015;-89
2022/07/15 03:07:17;;;;;;;13.32;2.72;;;13.10;99.90;;;;;;6286399;22;20033;-89
2022/07/15 03:09:42;;;;;;;8.38;3.00;;;13.00;99.90;;;;;;6260375;22;20015;-88
2022/07/15 03:12:08;;;;;;;12.20;3.88;;;13.00;99.90;;;;;;6288830;22;20014;-88
2022/07/15 03:14:34;;;;;;;10.27;3.40;;;13.00;99.90;;;;;;6229575;22;20065;-88
2022/07/15 03:16:59;;;;;;;9.75;3.40;;;12.90;99.90;;;;;;6254395;22;20016;-87
2022/07/15 03:19:25;;;;;;;14.52;4.22;;;12.90;99.90;;;;;;6229718;22;20099;-88
2022/07/15 03:21:50;;;;;;;10.25;3.30;;;12.80;99.90;;;;;;6254824;22;20019;-88
2022/07/15 03:24:17;;;;;;;12.82;3.38;;;12.80;99.90;;;;;;6254488;22;20007;-88
2022/07/15 03:26:42;;;;;;;14.02;3.63;;;12.80;99.90;;;;;;6282690;22;20413;-88
2022/07/15 03:29:09;;;;;;;12.20;3.90;;;12.70;99.90;;;;;;6255105;22;20087;-89
2022/07/15 03:31:35;;;;;;;8.20;2.80;;;12.70;99.90;;;;;;6254171;22;20421;-88
2022/07/15 03:34:00;;;;;;;14.02;3.60;;;12.70;99.90;;;;;;6255661;22;20016;-88
2022/07/15 03:36:26;;;;;;;11.70;4.03;;;12.70;99.90;;;;;;6229520;22;20054;-89
2022/07/15 03:38:56;;;;;;;17.08;4.20;;;12.70;99.90;;;;;;6228603;22;20073;-89
2022/07/15 03:41:22;;;;;;;7.22;2.70;;;12.60;99.90;;;;;;6253603;22;20012;-89
2022/07/15 03:43:48;;;;;;;15.02;3.72;;;12.60;99.90;;;;;;6254940;22;20061;-88
2022/07/15 03:46:16;;;;;;;15.32;3.83;;;12.50;99.90;;;;;;6230489;22;20011;-89
2022/07/15 03:48:42;;;;;;;8.80;3.63;;;12.50;99.90;;;;;;6254718;22;20007;-90
2022/07/15 03:51:08;;;;;;;14.25;3.90;;;12.50;99.90;;;;;;6254744;22;20064;-88
2022/07/15 03:53:33;;;;;;;9.45;3.17;;;12.50;99.90;;;;;;6229711;22;20015;-88
2022/07/15 03:55:59;;;;;;;11.88;3.03;;;12.50;99.90;;;;;;6282129;22;20042;-88
2022/07/15 03:58:25;;;;;;;9.07;3.00;;;12.60;99.90;;;;;;6254270;22;20069;-89
2022/07/15 04:00:51;;;;;;;13.00;3.30;;;12.60;99.90;;;;;;6229020;22;20050;-89
2022/07/15 04:03:16;;;;;;;12.85;3.60;;;12.60;99.90;;;;;;6254485;22;20062;-88
2022/07/15 04:05:45;;;;;;;8.65;3.53;;;12.60;99.90;;;;;;6229964;22;20364;-88
2022/07/15 04:08:11;;;;;;;11.82;3.50;;;12.50;99.90;;;;;;6254480;22;20056;-88
2022/07/15 04:10:37;;;;;;;11.32;3.45;;;12.50;99.90;;;;;;6228751;22;20405;-90
2022/07/15 04:13:03;;;;;;;10.98;3.10;;;12.40;99.90;;;;;;6254342;22;20043;-89
2022/07/15 04:15:28;;;;;;;13.05;3.78;;;12.40;99.90;;;;;;6229484;22;20061;-87
2022/07/15 04:17:55;;;;;;;8.82;3.50;;;12.40;99.90;;;;;;6255036;22;19995;-88
2022/07/15 04:20:21;;;;;;;10.68;3.50;;;12.40;99.90;;;;;;6254644;22;20019;-88
2022/07/15 04:22:47;;;;;;;8.60;3.53;;;12.40;99.90;;;;;;6255425;22;20007;-89
2022/07/15 04:25:17;;;;;;;15.35;3.40;;;12.30;99.90;;;;;;6228834;22;20020;-88
2022/07/15 04:27:43;;;;;;;11.13;4.13;;;12.30;99.90;;;;;;6254441;22;20008;-89
2022/07/15 04:30:09;;;;;;;8.27;3.08;;;12.30;99.90;;;;;;6255443;22;20049;-88
2022/07/15 04:32:36;;;;;;;9.70;3.70;;;12.30;99.90;;;;;;6254965;22;20018;-89
2022/07/15 04:35:02;;;;;;;11.23;3.97;;;12.30;99.90;;;;;;6254501;22;20058;-89
2022/07/15 04:37:28;;;;;;;11.73;3.60;;;12.30;99.90;;;;;;6254620;22;20046;-88
2022/07/15 04:39:55;;;;;;;10.23;3.60;;;12.30;99.90;;;;;;6254943;22;20011;-87
2022/07/15 04:42:33;;;;;;;12.57;3.55;;;12.30;99.90;;;;;;6281754;22;20014;-84
2022/07/15 04:44:59;;;;;;;9.07;2.85;;;12.30;99.90;;;;;;6253145;22;20480;-88
2022/07/15 04:47:25;;;;;;;9.88;3.58;;;12.30;99.90;;;;;;6254363;22;20015;-87
2022/07/15 04:52:34;;;;;;;12.88;3.05;;;12.40;99.90;;;;;;6253480;22;20027;-87
2022/07/15 04:55:00;;;;;;;7.40;3.17;;;12.30;99.90;;;;;;6228324;22;20012;-88
2022/07/15 04:57:26;;;;;;;8.35;2.78;;;12.40;99.90;;;;;;6253475;22;20091;-88
2022/07/15 04:59:52;;;;;;;6.57;2.45;;;12.40;99.90;;;;;;6280403;22;20012;-89
2022/07/15 05:02:17;;;;;;;7.40;2.40;;;12.40;99.90;;;;;;6253080;22;20016;-88
2022/07/15 05:04:43;;;;;;;6.22;2.20;;;12.40;99.90;;;;;;6253212;22;20023;-88
2022/07/15 05:07:08;;;;;;;4.95;2.00;;;12.40;99.90;;;;;;6254026;22;20011;-88
2022/07/15 05:09:34;;;;;;;11.20;2.20;;;12.40;99.90;;;;;;6228030;22;20016;-90
2022/07/15 05:12:00;;;;;;;11.63;2.67;;;12.40;99.90;;;;;;6227989;22;20012;-89
2022/07/15 05:14:26;;;;;;;4.82;2.10;;;12.40;99.90;;;;;;6253954;22;20016;-87
2022/07/15 05:16:52;;;;;;;4.40;2.10;;;12.50;99.90;;;;;;6227739;22;20015;-89
2022/07/15 05:19:17;;;;;;;15.68;1.98;;;12.50;99.90;;;;;;6227402;22;20011;-89
2022/07/15 05:21:43;;;;;;;6.65;2.00;;;12.60;99.90;;;;;;6253624;22;20058;-88
2022/07/15 05:24:08;;;;;;;6.25;1.90;;;12.70;99.90;;;;;;6228889;22;20015;-89
2022/07/15 05:26:34;;;;;;;7.22;2.05;;;12.80;99.90;;;;;;6280127;22;20018;-87
2022/07/15 05:29:00;;;;;;;8.60;1.80;;;13.00;99.90;;;;;;6254056;22;20011;-88
2022/07/15 05:31:27;;;;;;;4.65;1.48;;;13.00;99.90;;;;;;6227233;22;20463;-74
2022/07/15 05:33:53;;;;;;;4.78;1.60;;;13.10;99.90;;;;;;6253721;22;20016;-88
2022/07/15 05:36:18;;;;;;;3.78;1.50;;;13.20;99.90;;;;;;6250736;22;20015;-82
2022/07/15 05:38:44;;;;;;;4.05;1.63;;;13.20;99.90;;;;;;6250638;22;20038;-86
2022/07/15 05:41:11;;;;;;;6.38;1.42;;;13.30;99.90;;;;;;6225784;22;20015;-84
2022/07/15 05:43:37;;;;;;;3.67;1.50;;;13.40;99.90;;;;;;6279908;22;20426;-87
2022/07/15 05:46:04;;;;;;;6.30;1.20;;;13.50;99.90;;;;;;6278653;22;20514;-85
2022/07/15 05:48:30;;;;;;;4.13;1.13;;;13.60;99.90;;;;;;6226386;22;20058;-86
2022/07/15 05:50:56;;;;;;;8.63;1.33;;;13.70;99.90;;;;;;6280456;22;20007;-86
2022/07/15 05:53:22;;;;;;;2.50;0.90;;;13.80;99.90;;;;;;6283333;22;20016;-86
2022/07/15 05:55:48;;;;;;;3.50;0.93;;;13.90;99.90;;;;;;6228647;22;20011;-85
2022/07/15 05:58:14;;;;;;;2.95;0.85;;;14.00;99.90;;;;;;6235759;22;20059;-82
2022/07/15 06:00:39;;;;;;;3.85;0.82;;;14.00;99.90;;;;;;6263197;22;20325;-81
2022/07/15 06:03:05;;;;;;;1.52;0.70;;;14.10;99.90;;;;;;6255176;22;20412;-83
2022/07/15 06:05:31;;;;;;;3.83;0.77;;;14.10;99.90;;;;;;6255223;22;20445;-86
2022/07/15 06:07:58;;;;;;;1.70;0.63;;;14.10;99.90;;;;;;6282060;22;20054;-85
2022/07/15 06:10:23;;;;;;;3.63;0.75;;;14.20;99.90;;;;;;6282165;22;20015;-86
2022/07/15 06:12:49;;;;;;;5.18;0.70;;;14.20;99.90;;;;;;6229813;22;20015;-85
2022/07/15 06:15:15;;;;;;;3.53;0.63;;;14.20;99.90;;;;;;6230006;22;20019;-87
2022/07/15 06:17:41;;;;;;;6.13;1.10;;;14.20;99.90;;;;;;6255153;22;20166;-85
2022/07/15 06:20:07;;;;;;;4.63;1.08;;;14.20;99.90;;;;;;6253975;22;20026;-86
2022/07/15 06:22:33;;;;;;;3.80;0.68;;;14.30;99.90;;;;;;6254302;22;20023;-87
2022/07/15 06:24:59;;;;;;;2.80;0.70;;;14.40;99.90;;;;;;6281244;22;20092;-85
2022/07/15 06:27:25;;;;;;;2.92;1.15;;;14.40;99.90;;;;;;6253536;22;20008;-87
2022/07/15 06:29:51;;;;;;;3.65;0.60;;;14.50;99.90;;;;;;6254467;22;20011;-87
2022/07/15 06:32:18;;;;;;;2.83;0.75;;;14.60;99.90;;;;;;6253328;22;20085;-83
2022/07/15 06:34:44;;;;;;;4.55;0.70;;;14.70;99.90;;;;;;6254031;22;20062;-83
2022/07/15 06:37:10;;;;;;;4.93;0.70;;;14.80;99.90;;;;;;6253984;22;20016;-86
2022/07/15 06:39:36;;;;;;;3.05;0.60;;;14.90;99.90;;;;;;6253690;22;20485;-86
2022/07/15 06:42:02;;;;;;;3.55;0.50;;;15.00;99.90;;;;;;6253511;22;20016;-87
2022/07/15 06:44:28;;;;;;;1.40;0.47;;;15.10;99.90;;;;;;6253599;22;20070;-86
2022/07/15 06:46:53;;;;;;;2.35;0.50;;;15.10;99.90;;;;;;6253382;22;20388;-86
2022/07/15 06:49:19;;;;;;;7.85;0.73;;;15.20;99.90;;;;;;6227929;22;20039;-84
2022/07/15 06:51:45;;;;;;;6.18;0.73;;;15.20;99.90;;;;;;6230445;22;20090;-90
2022/07/15 06:54:11;;;;;;;4.90;0.60;;;15.30;99.90;;;;;;6254377;22;20050;-87
2022/07/15 06:56:39;;;;;;;2.33;0.60;;;15.40;99.90;;;;;;6253341;22;20054;-88
2022/07/15 06:59:04;;;;;;;3.45;0.40;;;15.50;99.90;;;;;;6251871;22;20022;-86
2022/07/15 07:01:30;;;;;;;2.53;0.50;;;15.60;99.90;;;;;;6228140;22;20412;-85
2022/07/15 07:03:56;;;;;;;2.95;0.60;;;15.60;99.90;;;;;;6227841;22;20022;-87
2022/07/15 07:06:22;;;;;;;2.30;0.30;;;15.70;99.90;;;;;;6228207;22;20019;-86
2022/07/15 07:08:48;;;;;;;3.40;0.75;;;15.80;99.90;;;;;;6252972;22;20022;-83
2022/07/15 07:11:17;;;;;;;3.95;0.60;;;15.80;99.90;;;;;;6252478;22;20016;-86
2022/07/15 07:13:42;;;;;;;2.70;0.52;;;15.90;99.90;;;;;;6227678;22;20011;-85
2022/07/15 07:16:08;;;;;;;4.18;0.60;;;15.90;99.90;;;;;;6253142;22;20018;-82
2022/07/15 07:18:34;;;;;;;2.35;0.50;;;16.00;99.90;;;;;;6252790;22;20077;-85
2022/07/15 07:21:01;;;;;;;2.22;0.47;;;16.00;99.90;;;;;;6254397;22;20016;-88
2022/07/15 07:23:27;;;;;;;2.35;0.45;;;16.00;99.90;;;;;;6253628;22;20046;-86
2022/07/15 07:25:54;;;;;;;2.58;0.30;;;16.00;99.90;;;;;;6280881;22;20019;-86
2022/07/15 07:28:35;;;;;;;6.10;1.00;;;16.10;99.90;;;;;;6228228;22;20011;-92
2022/07/15 07:31:01;;;;;;;3.13;0.40;;;16.20;99.90;;;;;;6229456;22;20027;-87
2022/07/15 07:33:27;;;;;;;5.60;0.90;;;16.20;99.90;;;;;;6253569;22;20046;-86
2022/07/15 07:35:53;;;;;;;2.08;0.38;;;16.20;99.90;;;;;;6280302;22;20012;-85
2022/07/15 07:38:20;;;;;;;2.25;0.32;;;16.30;99.90;;;;;;6227317;22;20018;-84
2022/07/15 07:40:49;;;;;;;3.38;0.40;;;16.40;99.90;;;;;;6252116;22;20020;-87
2022/07/15 07:43:16;;;;;;;2.35;0.40;;;16.50;99.90;;;;;;6252759;22;20336;-86
2022/07/15 07:45:41;;;;;;;2.75;0.50;;;16.60;99.90;;;;;;6228193;22;20011;-86
2022/07/15 07:48:07;;;;;;;3.55;0.52;;;16.60;99.90;;;;;;6252743;22;20050;-84
2022/07/15 07:50:33;;;;;;;3.75;0.50;;;16.70;99.90;;;;;;6280193;22;20468;-85
2022/07/15 07:52:58;;;;;;;1.60;0.43;;;16.80;99.90;;;;;;6253014;22;20012;-88
2022/07/15 07:55:24;;;;;;;2.33;0.38;;;16.70;99.90;;;;;;6252967;22;20008;-85
2022/07/15 07:57:52;;;;;;;2.58;0.32;;;16.60;99.90;;;;;;6252626;22;20014;-86
2022/07/15 08:00:19;;;;;;;2.83;0.35;;;16.60;99.90;;;;;;6252984;22;20023;-84
2022/07/15 08:02:45;;;;;;;3.55;0.60;;;16.70;99.90;;;;;;6252526;22;20447;-84
2022/07/15 08:05:15;;;;;;;2.30;0.40;;;16.80;99.90;;;;;;6278721;22;20073;-85
2022/07/15 08:07:41;;;;;;;3.42;0.63;;;17.00;99.90;;;;;;6280208;22;20039;-84
2022/07/15 08:10:09;;;;;;;2.90;0.50;;;17.20;99.90;;;;;;6279715;22;20008;-83
2022/07/15 08:12:36;;;;;;;3.08;0.43;;;17.20;99.90;;;;;;6253473;22;20585;-86
2022/07/15 08:15:03;;;;;;;2.45;0.30;;;17.30;99.90;;;;;;6253270;22;20042;-87
2022/07/15 08:17:28;;;;;;;1.38;0.50;;;17.30;99.90;;;;;;6228123;22;20017;-82
2022/07/15 08:19:54;;;;;;;1.20;0.38;;;17.40;99.90;;;;;;6279487;22;20018;-85
2022/07/15 08:22:20;;;;;;;2.00;0.32;;;17.40;99.90;;;;;;6280285;22;20475;-90
2022/07/15 08:24:46;;;;;;;3.03;0.55;;;17.40;99.90;;;;;;6230573;22;20012;-89
2022/07/15 08:27:11;;;;;;;2.03;0.47;;;17.30;99.90;;;;;;6254798;22;20023;-89
2022/07/15 08:29:38;;;;;;;2.50;0.30;;;17.20;99.90;;;;;;6231132;22;20020;-89
2022/07/15 08:32:04;;;;;;;2.58;0.70;;;17.30;99.90;;;;;;6255878;22;20320;-90
2022/07/15 08:34:30;;;;;;;1.92;0.40;;;17.20;99.90;;;;;;6231073;22;20405;-89
2022/07/15 08:36:56;;;;;;;1.50;0.28;;;17.20;99.90;;;;;;6229326;22;20011;-87
2022/07/15 08:39:22;;;;;;;1.40;0.70;;;17.20;99.90;;;;;;6254134;22;20003;-89
2022/07/15 08:41:48;;;;;;;3.25;0.22;;;17.20;99.90;;;;;;6281358;22;20333;-88
2022/07/15 08:44:14;;;;;;;2.95;0.30;;;17.20;99.90;;;;;;6253640;22;20016;-86
2022/07/15 08:46:44;;;;;;;2.70;0.45;;;17.20;99.90;;;;;;6253629;22;20460;-88
2022/07/15 08:49:18;;;;;;;4.30;0.57;;;17.40;99.90;;;;;;6229533;22;20061;-88
2022/07/15 08:51:46;;;;;;;2.75;0.40;;;17.50;99.90;;;;;;6253611;22;20437;-84
2022/07/15 08:54:13;;;;;;;2.03;0.30;;;17.70;99.90;;;;;;6253192;22;20015;-87
2022/07/15 08:56:40;;;;;;;1.42;0.40;;;17.80;99.90;;;;;;6280002;22;20042;-86
2022/07/15 08:59:07;;;;;;;3.35;0.40;;;18.00;99.90;;;;;;6253803;22;20011;-87
2022/07/15 09:01:40;;;;;;;2.53;0.30;;;18.00;99.90;;;;;;6252908;22;20015;-84
2022/07/15 09:04:06;;;;;;;2.83;0.43;;;18.00;99.90;;;;;;6280687;22;20008;-87
2022/07/15 09:06:41;;;;;;;5.32;0.65;;;18.00;99.90;;;;;;6280328;22;20075;-87
2022/07/15 09:09:31;;;;;;;4.55;0.43;;;17.90;99.90;;;;;;6228618;22;20012;-87
2022/07/15 09:12:04;;;;;;;3.95;0.50;;;17.90;99.90;;;;;;6280806;22;20019;-88
2022/07/15 09:14:32;;;;;;;1.55;0.40;;;18.00;99.90;;;;;;6225514;22;20442;-82
2022/07/15 09:17:09;;;;;;;1.55;0.30;;;18.20;99.90;;;;;;6280254;22;20023;-84
2022/07/15 09:20:04;;;;;;;4.43;0.50;;;18.20;99.90;;;;;;6253314;22;20066;-83
2022/07/15 09:22:33;;;;;;;2.63;0.40;;;18.10;99.90;;;;;;6253345;22;20015;-89
2022/07/15 09:25:10;;;;;;;1.45;0.40;;;18.10;99.90;;;;;;6253077;22;20453;-87
2022/07/15 09:27:38;;;;;;;0.98;0.30;;;18.10;99.90;;;;;;6226725;22;20441;-87
2022/07/15 09:36:02;;;;;;;1.25;0.40;;;18.20;99.90;;;;;;6280610;22;20078;-88
2022/07/15 09:38:40;;;;;;;5.30;0.40;;;18.10;99.90;;;;;;6282349;22;20328;-85
2022/07/15 09:41:11;;;;;;;2.00;0.40;;;18.10;99.90;;;;;;6234325;22;20011;-88
2022/07/15 09:43:45;;;;;;;1.88;0.40;;;18.00;99.90;;;;;;6286975;22;20015;-87
2022/07/15 09:46:14;;;;;;;1.30;0.30;;;18.10;99.90;;;;;;6235082;22;20011;-87
2022/07/15 09:48:44;;;;;;;3.65;0.32;;;18.20;99.90;;;;;;6258553;22;20429;-86
2022/07/15 09:51:11;;;;;;;2.67;0.30;;;18.40;99.90;;;;;;6232545;22;20034;-86
2022/07/15 09:53:38;;;;;;;1.17;0.30;;;18.70;99.90;;;;;;6258886;22;20015;-88
2022/07/15 09:56:06;;;;;;;1.23;0.30;;;18.80;99.90;;;;;;6231247;22;20015;-87
2022/07/15 09:58:32;;;;;;;1.38;0.30;;;18.80;99.90;;;;;;6282563;22;20018;-88
2022/07/15 10:00:58;;;;;;;2.72;0.60;;;18.90;99.90;;;;;;6283562;22;20082;-87
2022/07/15 10:03:24;;;;;;;2.50;0.50;;;18.80;99.90;;;;;;6259125;22;20019;-84
2022/07/15 10:05:54;;;;;;;1.83;0.30;;;18.80;99.90;;;;;;6230424;22;20329;-88
2022/07/15 10:08:20;;;;;;;1.95;0.60;;;18.90;99.90;;;;;;6257723;22;20015;-88
2022/07/15 10:10:48;;;;;;;3.53;0.75;;;18.90;99.90;;;;;;6257473;22;20012;-87
2022/07/15 10:13:23;;;;;;;2.22;0.68;;;18.80;99.90;;;;;;6256021;22;20011;-87
2022/07/15 10:16:20;;;;;;;3.63;0.65;;;18.70;99.90;;;;;;6232041;22;20012;-86
2022/07/15 10:19:07;;;;;;;4.32;0.47;;;18.90;99.90;;;;;;6254738;22;20011;-84
2022/07/15 10:21:45;;;;;;;1.67;0.50;;;18.90;99.90;;;;;;6254897;22;20012;-87
2022/07/15 10:24:25;;;;;;;0.93;0.30;;;18.70;99.90;;;;;;6254429;22;20069;-89
2022/07/15 10:27:19;;;;;;;2.40;0.50;;;18.50;99.90;;;;;;6280871;22;20007;-87
2022/07/15 10:29:46;;;;;;;1.85;0.32;;;18.40;99.90;;;;;;6283012;22;20008;-88
2022/07/15 10:32:11;;;;;;;3.38;0.50;;;18.30;99.90;;;;;;6229163;22;20012;-84
2022/07/15 10:34:38;;;;;;;2.63;0.40;;;18.20;99.90;;;;;;6280193;22;20065;-88
2022/07/15 10:37:12;;;;;;;2.58;0.50;;;18.20;99.90;;;;;;6229852;22;20015;-89
2022/07/15 10:39:57;;;;;;;1.70;0.60;;;18.30;99.90;;;;;;6255372;22;20019;-89
2022/07/15 10:42:24;;;;;;;1.85;0.38;;;18.80;99.90;;;;;;6229074;22;20011;-86
2022/07/15 10:44:58;;;;;;;1.58;0.40;;;19.20;99.90;;;;;;6280570;22;20019;-88
2022/07/15 10:47:24;;;;;;;2.67;0.73;;;19.40;99.90;;;;;;6230061;22;20083;-89
2022/07/15 10:49:51;;;;;;;2.42;0.38;;;19.30;99.90;;;;;;6253191;22;20019;-86
2022/07/15 10:52:22;;;;;;;0.85;0.30;;;19.40;99.90;;;;;;6253969;22;20015;-83
2022/07/15 10:54:49;;;;;;;2.60;0.52;;;19.50;99.90;;;;;;6253634;22;20051;-81
2022/07/15 10:57:17;;;;;;;3.40;0.63;;;19.70;99.90;;;;;;6253200;22;20016;-84
2022/07/15 10:59:52;;;;;;;3.00;0.52;;;19.50;99.90;;;;;;6252596;22;20035;-86
2022/07/15 11:02:20;;;;;;;1.33;0.50;;;19.40;99.90;;;;;;6227752;22;20047;-87
2022/07/15 11:04:46;;;;;;;1.73;0.47;;;19.20;99.90;;;;;;6281431;22;20038;-89
2022/07/15 11:07:15;;;;;;;3.50;0.50;;;19.20;99.90;;;;;;6228562;22;20097;-86
2022/07/15 11:09:52;;;;;;;3.08;0.40;;;19.30;99.90;;;;;;6228766;22;20086;-87
2022/07/15 11:12:31;;;;;;;1.67;0.47;;;19.40;99.90;;;;;;6254045;22;20090;-87
2022/07/15 11:15:03;;;;;;;4.72;0.55;;;19.40;99.90;;;;;;6227994;22;20034;-85
2022/07/15 11:17:28;;;;;;;3.28;0.50;;;19.30;99.90;;;;;;6280837;22;20067;-86
2022/07/15 11:20:08;;;;;;;2.40;0.50;;;19.00;99.90;;;;;;6280560;22;20016;-85
2022/07/15 11:22:39;;;;;;;3.38;0.60;;;18.90;99.90;;;;;;6228846;22;20023;-85
2022/07/15 11:25:05;;;;;;;3.13;0.60;;;18.80;99.90;;;;;;6228005;22;20433;-87
2022/07/15 11:27:32;;;;;;;2.33;0.47;;;19.20;99.90;;;;;;6228516;22;20014;-85
2022/07/15 11:30:03;;;;;;;2.80;0.40;;;19.40;99.90;;;;;;6280293;22;20430;-88
2022/07/15 11:32:30;;;;;;;1.92;0.50;;;19.90;99.90;;;;;;6228027;22;20043;-87
2022/07/15 11:35:02;;;;;;;2.15;0.43;;;20.30;99.90;;;;;;6281338;22;20007;-87
2022/07/15 11:37:34;;;;;;;2.47;0.40;;;20.60;99.90;;;;;;6253729;22;20059;-88
2022/07/15 11:40:06;;;;;;;2.58;0.60;;;20.70;99.90;;;;;;6229672;22;20017;-85
2022/07/15 11:45:35;;;;;;;2.58;0.45;;;20.60;99.90;;;;;;6280014;22;20016;-84
2022/07/15 11:48:01;;;;;;;1.23;0.30;;;20.40;99.90;;;;;;6252796;22;20012;-89
2022/07/15 11:50:26;;;;;;;1.92;0.50;;;20.00;99.90;;;;;;6227958;22;20333;-85
2022/07/15 11:52:59;;;;;;;1.33;0.40;;;19.90;99.90;;;;;;6228288;22;20016;-88
2022/07/15 11:55:24;;;;;;;2.10;0.47;;;19.70;99.90;;;;;;6228688;22;20019;-89
2022/07/15 11:57:51;;;;;;;2.38;0.45;;;19.60;99.90;;;;;;6280982;22;20007;-86
2022/07/15 12:00:19;;;;;;;1.67;0.40;;;19.40;99.90;;;;;;6253035;22;20429;-85
2022/07/15 12:02:45;;;;;;;2.70;0.40;;;19.50;99.90;;;;;;6253078;22;20047;-86
2022/07/15 12:05:11;;;;;;;1.02;0.32;;;19.50;99.90;;;;;;6253313;22;20012;-86
2022/07/15 12:07:44;;;;;;;2.05;0.40;;;19.50;99.90;;;;;;6253024;22;20018;-87
2022/07/15 12:10:12;;;;;;;2.03;0.45;;;19.40;99.90;;;;;;6228684;22;20012;-87
2022/07/15 12:12:54;;;;;;;1.75;0.30;;;19.40;99.90;;;;;;6280719;22;20046;-88
2022/07/15 12:15:23;;;;;;;1.95;0.38;;;19.40;99.90;;;;;;6228212;22;20018;-88
2022/07/15 12:17:49;;;;;;;4.43;0.50;;;19.20;99.90;;;;;;6253793;22;20062;-91
2022/07/15 12:20:15;;;;;;;2.15;0.47;;;19.20;99.90;;;;;;6279900;22;20337;-84
2022/07/15 12:23:06;;;;;;;2.58;0.52;;;19.20;99.90;;;;;;6280354;22;20012;-87
2022/07/15 12:25:32;;;;;;;2.63;0.45;;;19.10;99.90;;;;;;6253696;22;20016;-87
2022/07/15 12:27:58;;;;;;;1.80;0.50;;;19.10;99.90;;;;;;6280266;22;20024;-82
2022/07/15 12:30:35;;;;;;;4.22;0.52;;;19.10;99.90;;;;;;6227437;22;20137;-89
2022/07/15 12:33:14;;;;;;;3.17;0.50;;;19.00;99.90;;;;;;6263930;22;20063;-86
2022/07/15 12:35:40;;;;;;;1.08;0.50;;;18.90;99.90;;;;;;6269045;22;20008;-86
2022/07/15 12:38:05;;;;;;;1.80;0.50;;;18.80;99.90;;;;;;6296920;22;20015;-85
2022/07/15 12:40:31;;;;;;;3.22;0.45;;;18.90;99.90;;;;;;6270710;22;20015;-85
2022/07/15 12:42:57;;;;;;;1.73;0.47;;;18.90;99.90;;;;;;6252699;22;20042;-83
2022/07/15 12:45:40;;;;;;;;;;;;;;;;;;;;;
2022/07/15 12:48:08;;;;;;;7.57;0.95;;;19.00;99.90;;;;;;6267082;22;20133;-87
2022/07/15 12:50:49;;;;;;;2.90;0.73;;;19.00;99.90;;;;;;6254363;22;20012;-83
2022/07/15 12:53:16;;;;;;;2.33;0.57;;;19.20;99.90;;;;;;6254134;22;20031;-90
2022/07/15 12:55:47;;;;;;;4.63;0.80;;;19.60;99.90;;;;;;6280825;22;20007;-83
2022/07/15 12:58:22;;;;;;;1.73;0.70;;;20.00;99.90;;;;;;6252932;22;20012;-83
2022/07/15 13:00:48;;;;;;;3.25;0.60;;;20.10;99.90;;;;;;6227156;22;20008;-82
2022/07/15 13:03:15;;;;;;;1.13;0.50;;;19.90;99.90;;;;;;6251960;22;20402;-90
2022/07/15 13:05:52;;;;;;;3.67;0.50;;;19.70;99.90;;;;;;6227656;22;20019;-90
2022/07/15 13:08:23;;;;;;;2.47;0.60;;;19.80;99.90;;;;;;6227264;22;20362;-88
2022/07/15 13:10:58;;;;;;;2.08;0.57;;;19.80;99.90;;;;;;6228925;22;20015;-92
2022/07/15 13:13:28;;;;;;;3.95;0.57;;;19.70;99.90;;;;;;6253827;22;19999;-88
2022/07/15 13:15:54;;;;;;;2.10;0.52;;;19.60;99.90;;;;;;6227725;22;20042;-88
2022/07/15 13:18:21;;;;;;;1.85;0.60;;;19.60;99.90;;;;;;6253569;22;20114;-88
2022/07/15 13:20:47;;;;;;;4.20;0.82;;;19.50;99.90;;;;;;6226583;22;20389;-84
2022/07/15 13:23:13;;;;;;;6.38;0.70;;;19.50;99.90;;;;;;6252020;22;20083;-87
2022/07/15 13:25:50;;;;;;;1.20;0.60;;;19.60;99.90;;;;;;6252778;22;20091;-86
2022/07/15 13:28:19;;;;;;;4.50;1.02;;;19.70;99.90;;;;;;6130822;22;20016;-84
2022/07/15 13:30:45;;;;;;;4.35;0.80;;;19.90;99.90;;;;;;6279821;22;20433;-86
2022/07/15 13:33:12;;;;;;;2.38;0.90;;;20.10;99.90;;;;;;6227823;22;20008;-89
2022/07/15 13:35:47;;;;;;;2.65;0.82;;;20.30;99.90;;;;;;6227315;22;20449;-88
2022/07/15 13:38:12;;;;;;;1.55;0.63;;;20.40;99.90;;;;;;6279692;22;20080;-85
2022/07/15 13:40:38;;;;;;;5.88;0.80;;;20.30;99.90;;;;;;6252845;22;20065;-89
2022/07/15 13:43:04;;;;;;;3.15;0.98;;;20.20;99.90;;;;;;6252508;22;20004;-87
2022/07/15 13:45:29;;;;;;;3.25;0.70;;;20.20;99.90;;;;;;6226440;22;20016;-86
2022/07/15 13:47:55;;;;;;;2.53;1.08;;;20.10;99.90;;;;;;6252721;22;20012;-87
2022/07/15 13:53:05;;;;;;;2.00;0.77;;;20.30;99.90;;;;;;6251823;22;20019;-87
2022/07/15 13:55:30;;;;;;;2.58;0.80;;;20.30;99.90;;;;;;6226506;22;20012;-85
2022/07/15 13:57:56;;;;;;;3.25;1.05;;;20.50;99.90;;;;;;6252113;22;20012;-86
2022/07/15 14:00:26;;;;;;;4.60;1.15;;;20.60;99.90;;;;;;6252973;22;20012;-87
2022/07/15 14:02:54;;;;;;;3.50;0.80;;;20.60;99.90;;;;;;6253839;22;20011;-90
2022/07/15 14:05:21;;;;;;;4.25;1.00;;;20.60;99.90;;;;;;6280199;22;20019;-90
2022/07/15 14:07:46;;;;;;;4.68;0.80;;;20.30;99.90;;;;;;6280584;22;20456;-89
2022/07/15 14:10:18;;;;;;;3.40;0.85;;;20.20;99.90;;;;;;6280077;22;20016;-83
2022/07/15 14:12:44;;;;;;;2.22;0.80;;;20.20;99.90;;;;;;6253318;22;20141;-86
2022/07/15 14:15:10;;;;;;;2.03;0.82;;;20.30;99.90;;;;;;6226851;22;20019;-90
2022/07/15 14:17:36;;;;;;;3.67;0.93;;;20.40;99.90;;;;;;6228076;22;20015;-91
2022/07/15 14:20:02;;;;;;;4.03;0.90;;;20.40;99.90;;;;;;6279435;22;20087;-84
2022/07/15 14:22:32;;;;;;;2.78;0.82;;;20.40;99.90;;;;;;6226935;22;20023;-85
2022/07/15 14:24:58;;;;;;;2.90;0.93;;;20.40;99.90;;;;;;6280732;22;20086;-88
2022/07/15 14:27:24;;;;;;;2.55;1.20;;;20.10;99.90;;;;;;6253831;22;20456;-87
2022/07/15 14:29:50;;;;;;;3.78;1.08;;;20.20;99.90;;;;;;6253384;22;20015;-88
2022/07/15 14:32:15;;;;;;;3.92;1.13;;;20.20;99.90;;;;;;6228778;22;20050;-85
2022/07/15 14:34:41;;;;;;;6.22;1.17;;;20.40;99.90;;;;;;6227534;22;20016;-83
2022/07/15 14:37:06;;;;;;;3.40;1.10;;;20.50;99.90;;;;;;6226992;22;20077;-84
2022/07/15 14:39:32;;;;;;;4.57;1.15;;;20.60;99.90;;;;;;6252402;22;20103;-85
2022/07/15 14:42:04;;;;;;;3.28;1.50;;;20.50;99.90;;;;;;6252649;22;20012;-84
2022/07/15 14:44:30;;;;;;;5.72;1.50;;;20.50;99.90;;;;;;6279165;22;20012;-86
2022/07/15 14:46:56;;;;;;;2.78;1.35;;;20.50;99.90;;;;;;6279044;22;20022;-85
2022/07/15 14:49:24;;;;;;;4.30;1.05;;;20.40;99.90;;;;;;6227352;22;20012;-86
2022/07/15 14:51:50;;;;;;;3.03;1.42;;;20.20;99.90;;;;;;6252511;22;20012;-83
2022/07/15 14:54:16;;;;;;;2.05;0.90;;;19.90;99.90;;;;;;6252243;22;20022;-86
2022/07/15 14:56:42;;;;;;;3.45;1.20;;;19.90;99.90;;;;;;6279728;22;20023;-81
2022/07/15 14:59:07;;;;;;;4.30;1.30;;;19.80;99.90;;;;;;6279673;22;20011;-82
2022/07/15 15:01:33;;;;;;;4.55;1.20;;;20.00;99.90;;;;;;6251637;22;20019;-85
2022/07/15 15:03:58;;;;;;;4.25;1.50;;;20.00;99.90;;;;;;6252364;22;20020;-86
2022/07/15 15:06:24;;;;;;;3.17;1.48;;;20.00;99.90;;;;;;6227423;22;20016;-84
2022/07/15 15:08:50;;;;;;;4.55;1.63;;;20.00;99.90;;;;;;6279175;22;20012;-85
2022/07/15 15:11:16;;;;;;;3.72;1.40;;;19.90;99.90;;;;;;6252615;22;20019;-84
2022/07/15 15:13:42;;;;;;;5.80;1.55;;;19.90;99.90;;;;;;6279325;22;20011;-86
2022/07/15 15:16:08;;;;;;;4.20;1.60;;;19.90;99.90;;;;;;6251881;22;20077;-84
2022/07/15 15:18:33;;;;;;;5.50;1.88;;;19.90;99.90;;;;;;6226890;22;20015;-84
2022/07/15 15:20:59;;;;;;;6.00;1.48;;;20.00;99.90;;;;;;6252603;22;20052;-84
2022/07/15 15:23:25;;;;;;;2.95;1.40;;;20.00;99.90;;;;;;6252603;22;20016;-86
2022/07/15 15:28:34;;;;;;;4.53;1.95;;;19.80;99.90;;;;;;6280959;22;20007;-88
2022/07/15 15:31:00;;;;;;;5.72;1.50;;;19.80;99.90;;;;;;6280959;22;20062;-93
2022/07/15 15:33:26;;;;;;;5.07;1.70;;;19.90;99.90;;;;;;6281331;22;20514;-88
2022/07/15 15:35:52;;;;;;;7.13;1.77;;;19.90;99.90;;;;;;6227813;22;20014;-91
2022/07/15 15:38:28;;;;;;;6.45;1.73;;;20.00;99.90;;;;;;6253995;22;20394;-86
2022/07/15 15:40:56;;;;;;;5.43;1.58;;;19.80;99.90;;;;;;6279549;22;20003;-87
2022/07/15 15:43:22;;;;;;;3.80;1.73;;;19.80;99.90;;;;;;6280542;22;20011;-89
2022/07/15 15:45:47;;;;;;;5.43;1.60;;;19.70;99.90;;;;;;6227949;22;20022;-87
2022/07/15 15:48:13;;;;;;;5.78;1.52;;;19.60;99.90;;;;;;6280418;22;20051;-89
2022/07/15 15:50:49;;;;;;;2.63;1.17;;;19.70;99.90;;;;;;6253004;22;20008;-84
2022/07/15 15:53:30;;;;;;;5.85;1.40;;;19.70;99.90;;;;;;6252479;22;20011;-86
2022/07/15 15:56:05;;;;;;;;;;;;;;;;;;;;;
2022/07/15 15:59:15;;;;;;;4.85;1.33;;;19.80;99.90;;;;;;6194014;22;20378;-89
2022/07/15 16:01:45;;;;;;;3.55;1.70;;;19.80;99.90;;;;;;6179402;22;20019;-85
2022/07/15 16:04:10;;;;;;;4.78;1.85;;;19.80;99.90;;;;;;6226352;22;20023;-84
2022/07/15 16:06:36;;;;;;;2.85;1.33;;;19.80;99.90;;;;;;6254840;22;20449;-86
2022/07/15 16:09:02;;;;;;;3.72;1.20;;;19.80;99.90;;;;;;6255486;22;20008;-86
2022/07/15 16:11:28;;;;;;;4.35;1.60;;;19.90;99.90;;;;;;6229271;22;20015;-89